Time;durP1;ratioP1;P1;durP2;ratioP2;P2;SDS_P1;SDS_P2;PMS_P1;PMS_P2;Temp;Humidity;BMP_temperature;BMP_pressure;BME280_temperature;BME280_humidity;BME280_pressure;Samples;Min_cycle;Max_cycle;Signal;HPM_P1;HPM_P2
2022/08/15 00:01:22;;;;;;;12.88;9.43;;;;;;;22.29;67.75;98934.82;1728210;83;21184;-47
2022/08/15 00:03:52;;;;;;;12.05;9.25;;;;;;;22.28;67.81;98924.98;1728269;83;21596;-47
2022/08/15 00:06:27;;;;;;;13.95;9.68;;;;;;;22.25;67.91;98931.42;1728180;83;21038;-47
2022/08/15 00:08:56;;;;;;;12.70;9.18;;;;;;;22.23;68.00;98932.47;1722428;82;21485;-47
2022/08/15 00:11:34;;;;;;;12.98;9.23;;;;;;;22.21;68.09;98932.94;1728382;83;21126;-47
2022/08/15 00:14:16;;;;;;;12.25;9.20;;;;;;;22.20;68.17;98923.70;1728156;83;20971;-47
2022/08/15 00:16:44;;;;;;;15.30;9.40;;;;;;;22.18;68.28;98926.13;1732457;82;20966;-46
2022/08/15 00:19:22;;;;;;;14.68;9.40;;;;;;;22.16;68.37;98931.35;1729003;82;21025;-47
2022/08/15 00:21:54;;;;;;;10.75;9.53;;;;;;;22.16;68.42;98929.36;1733479;82;21714;-47
2022/08/15 00:24:26;;;;;;;12.40;9.80;;;;;;;22.16;68.46;98932.73;1733511;82;21808;-47
2022/08/15 00:26:54;;;;;;;11.70;10.05;;;;;;;22.14;68.46;98931.78;1733419;82;21074;-47
2022/08/15 00:29:22;;;;;;;10.95;9.80;;;;;;;22.13;68.53;98927.48;1733837;82;21061;-47
2022/08/15 00:31:53;;;;;;;10.50;9.50;;;;;;;22.14;68.57;98929.02;1733532;82;21022;-47
2022/08/15 00:34:19;;;;;;;12.58;9.88;;;;;;;22.14;68.51;98929.63;1733500;82;21034;-47
2022/08/15 00:36:50;;;;;;;13.62;9.55;;;;;;;22.13;68.54;98926.70;1733584;82;21183;-47
2022/08/15 00:39:15;;;;;;;12.87;10.20;;;;;;;22.10;68.61;98922.86;1733806;82;21508;-46
2022/08/15 00:41:43;;;;;;;10.23;9.13;;;;;;;22.08;68.65;98920.54;1733368;82;21540;-47
2022/08/15 00:44:19;;;;;;;12.50;9.48;;;;;;;22.07;68.65;98920.38;1733682;82;21007;-47
2022/08/15 00:46:51;;;;;;;10.60;9.48;;;;;;;22.07;68.65;98912.73;1734173;82;21105;-47
2022/08/15 00:49:19;;;;;;;13.40;9.53;;;;;;;22.06;68.66;98908.41;1733606;82;21206;-47
2022/08/15 00:51:52;;;;;;;10.65;9.55;;;;;;;22.06;68.65;98905.66;1733938;82;21021;-47
2022/08/15 00:54:34;;;;;;;11.05;9.90;;;;;;;22.04;68.65;98904.72;1733742;82;21086;-47
2022/08/15 00:57:06;;;;;;;11.15;9.98;;;;;;;22.03;68.69;98904.55;1733115;82;21024;-47
2022/08/15 00:59:39;;;;;;;11.50;9.45;;;;;;;22.03;68.74;98900.41;1733575;82;21055;-47
2022/08/15 01:02:08;;;;;;;14.65;9.85;;;;;;;22.01;68.74;98905.62;1733764;82;21819;-47
2022/08/15 01:04:35;;;;;;;10.48;9.03;;;;;;;21.98;68.75;98901.58;1733591;82;20971;-47
2022/08/15 01:07:03;;;;;;;11.83;9.60;;;;;;;21.96;68.82;98899.29;1733242;82;21281;-47
2022/08/15 01:09:31;;;;;;;10.88;9.78;;;;;;;21.94;68.88;98898.95;1733698;82;20963;-47
2022/08/15 01:12:07;;;;;;;11.05;9.90;;;;;;;21.93;68.90;98895.25;1733504;82;21560;-47
2022/08/15 01:14:35;;;;;;;12.13;10.08;;;;;;;21.93;68.93;98900.16;1733471;82;21497;-47
2022/08/15 01:17:02;;;;;;;15.10;9.93;;;;;;;21.92;69.00;98901.38;1732153;82;21089;-47
2022/08/15 01:19:37;;;;;;;10.55;9.43;;;;;;;21.90;69.02;98888.62;1743628;81;21603;-47
2022/08/15 01:22:12;;;;;;;10.60;9.50;;;;;;;21.91;69.05;98891.55;1743537;82;20966;-47
2022/08/15 01:24:59;;;;;;;12.53;9.40;;;;;;;21.90;69.06;98891.38;1743512;81;21559;-47
2022/08/15 01:27:31;;;;;;;13.65;9.05;;;;;;;21.90;69.08;98889.22;1743653;81;21130;-46
2022/08/15 01:29:58;;;;;;;12.60;9.43;;;;;;;21.86;69.17;98886.59;1743581;82;20934;-47
2022/08/15 01:32:25;;;;;;;12.98;9.60;;;;;;;21.85;69.22;98894.70;1743810;81;20954;-47
2022/08/15 01:34:52;;;;;;;17.15;10.18;;;;;;;21.84;69.26;98890.40;1743463;81;20990;-47
2022/08/15 01:37:20;;;;;;;12.53;9.78;;;;;;;21.83;69.28;98892.24;1743690;81;21089;-47
2022/08/15 01:39:54;;;;;;;11.93;9.30;;;;;;;21.82;69.32;98887.33;1743470;81;21235;-47
2022/08/15 01:42:41;;;;;;;12.70;9.75;;;;;;;21.81;69.34;98888.54;1743582;82;20985;-47
2022/08/15 01:45:14;;;;;;;11.97;9.93;;;;;;;21.81;69.40;98884.41;1743467;82;20966;-47
2022/08/15 01:48:06;;;;;;;12.85;9.43;;;;;;;21.80;69.39;98886.99;1743612;82;21555;-47
2022/08/15 01:50:44;;;;;;;10.55;9.45;;;;;;;21.81;69.45;98894.06;1743551;81;21519;-47
2022/08/15 01:53:41;;;;;;;11.97;9.40;;;;;;;21.78;69.49;98888.06;1743530;81;21128;-47
2022/08/15 01:56:30;;;;;;;12.75;9.45;;;;;;;21.78;69.51;98889.44;1743432;81;21077;-47
2022/08/15 01:59:02;;;;;;;11.78;9.23;;;;;;;21.78;69.55;98891.43;1743485;82;21036;-47
2022/08/15 02:01:52;;;;;;;11.38;9.65;;;;;;;21.76;69.57;98884.97;1742451;81;20991;-47
2022/08/15 02:04:25;;;;;;;10.85;9.75;;;;;;;21.77;69.58;98882.38;1743380;82;21077;-47
2022/08/15 02:06:52;;;;;;;11.08;8.63;;;;;;;21.78;69.61;98884.53;1743407;82;21494;-47
2022/08/15 02:09:20;;;;;;;10.72;8.93;;;;;;;21.79;69.54;98883.29;1743544;82;21528;-47
2022/08/15 02:11:49;;;;;;;10.15;9.08;;;;;;;21.81;69.43;98887.16;1743457;81;21014;-47
2022/08/15 02:14:17;;;;;;;10.18;9.13;;;;;;;21.82;69.40;98879.66;1743740;81;21395;-47
2022/08/15 02:16:44;;;;;;;11.97;9.35;;;;;;;21.83;69.29;98877.84;1748992;82;21029;-47
2022/08/15 02:19:12;;;;;;;12.20;9.20;;;;;;;21.82;69.35;98874.14;1751549;82;21089;-47
2022/08/15 02:21:41;;;;;;;9.85;8.65;;;;;;;21.83;69.35;98876.46;1751270;82;21001;-47
2022/08/15 02:24:12;;;;;;;13.38;9.40;;;;;;;21.84;69.29;98873.84;1751616;82;21061;-47
2022/08/15 02:26:39;;;;;;;12.45;8.75;;;;;;;21.86;69.25;98883.84;1751389;82;20994;-47
2022/08/15 02:29:06;;;;;;;10.72;8.78;;;;;;;21.87;69.21;98879.09;1751282;82;21006;-47
2022/08/15 02:31:35;;;;;;;9.58;8.23;;;;;;;21.88;69.10;98877.24;1751469;82;21292;-47
2022/08/15 02:34:02;;;;;;;10.45;9.40;;;;;;;21.89;69.10;98873.87;1751171;82;20994;-47
2022/08/15 02:36:32;;;;;;;11.85;9.15;;;;;;;21.91;69.02;98870.84;1751291;82;20938;-47
2022/08/15 02:39:04;;;;;;;11.08;9.03;;;;;;;21.92;68.97;98873.00;1751171;81;21031;-47
2022/08/15 02:41:36;;;;;;;11.00;9.00;;;;;;;21.94;68.95;98870.58;1751536;82;21073;-47
2022/08/15 02:44:04;;;;;;;11.68;8.80;;;;;;;21.94;68.84;98877.48;1751326;82;21933;-47
2022/08/15 02:46:31;;;;;;;10.18;8.70;;;;;;;21.95;68.82;98874.28;1751382;82;20961;-47
2022/08/15 02:49:01;;;;;;;13.10;8.93;;;;;;;21.96;68.71;98868.16;1751268;82;21062;-47
2022/08/15 02:51:30;;;;;;;13.45;8.85;;;;;;;21.95;68.67;98870.14;1750680;81;21073;-47
2022/08/15 02:53:57;;;;;;;11.10;8.85;;;;;;;21.94;68.70;98876.09;1779246;80;21021;-47
2022/08/15 02:56:27;;;;;;;10.55;8.40;;;;;;;21.94;68.67;98876.88;1782478;80;21134;-47
2022/08/15 02:58:54;;;;;;;9.97;8.80;;;;;;;21.96;68.58;98876.44;1782605;80;21581;-47
2022/08/15 03:01:22;;;;;;;9.85;8.63;;;;;;;21.95;68.50;98868.76;1782430;80;21418;-47
2022/08/15 03:03:51;;;;;;;12.23;8.33;;;;;;;21.93;68.57;98871.79;1782425;80;21002;-47
2022/08/15 03:06:22;;;;;;;10.38;8.73;;;;;;;21.92;68.40;98873.77;1782500;80;21491;-47
2022/08/15 03:08:49;;;;;;;9.08;8.03;;;;;;;21.92;68.56;98877.14;1782312;80;21093;-47
2022/08/15 03:11:17;;;;;;;9.45;8.30;;;;;;;21.92;68.55;98879.30;1782335;80;20922;-47
2022/08/15 03:13:44;;;;;;;9.90;8.48;;;;;;;21.92;68.55;98877.14;1782282;80;21057;-47
2022/08/15 03:16:12;;;;;;;10.98;9.05;;;;;;;21.91;68.52;98872.23;1782242;80;21503;-47
2022/08/15 03:18:43;;;;;;;11.80;8.38;;;;;;;21.91;68.49;98871.45;1782253;80;21865;-47
2022/08/15 03:21:12;;;;;;;10.15;8.75;;;;;;;21.93;68.40;98867.05;1782132;80;21492;-47
2022/08/15 03:23:46;;;;;;;11.50;8.95;;;;;;;21.93;68.36;98868.42;1781893;80;20956;-47
2022/08/15 03:26:08;;;;;;;9.28;8.15;;;;;;;21.94;68.39;98863.07;1750969;80;20981;-47
2022/08/15 03:31:25;;;;;;;10.10;8.85;;;;;;;21.98;68.33;98860.95;1815463;79;22349;-47
2022/08/15 03:33:52;;;;;;;9.40;8.38;;;;;;;21.92;68.42;98866.88;1788704;80;21040;-47
2022/08/15 03:36:21;;;;;;;10.28;8.08;;;;;;;21.95;68.36;98867.98;1788601;80;21212;-47
2022/08/15 03:38:49;;;;;;;9.88;8.43;;;;;;;21.99;68.31;98870.01;1788540;80;21672;-46
2022/08/15 03:41:17;;;;;;;11.80;8.65;;;;;;;22.02;68.14;98866.37;1788286;80;21003;-47
2022/08/15 03:43:46;;;;;;;10.18;8.20;;;;;;;22.00;68.14;98869.56;1788362;80;20937;-46
2022/08/15 03:46:17;;;;;;;9.60;8.60;;;;;;;21.99;68.21;98865.26;1782934;80;21011;-47
2022/08/15 03:48:49;;;;;;;10.15;8.58;;;;;;;21.99;68.17;98867.25;1788666;80;21067;-47
2022/08/15 03:51:18;;;;;;;9.43;8.48;;;;;;;22.00;68.17;98870.17;1788314;80;21495;-47
2022/08/15 03:53:58;;;;;;;10.88;8.80;;;;;;;22.01;68.24;98869.73;1788654;80;20913;-47
2022/08/15 03:56:29;;;;;;;15.93;8.55;;;;;;;22.02;68.26;98869.91;1788344;80;21032;-47
2022/08/15 03:58:57;;;;;;;9.60;8.05;;;;;;;22.03;68.33;98861.76;1788607;80;20985;-47
2022/08/15 04:01:28;;;;;;;13.20;8.55;;;;;;;22.05;68.22;98864.86;1788319;80;21906;-46
2022/08/15 04:03:55;;;;;;;10.90;8.45;;;;;;;22.06;68.17;98869.16;1788548;80;21614;-47
2022/08/15 04:06:25;;;;;;;9.53;7.83;;;;;;;22.06;68.18;98869.16;1772629;80;20921;-47
2022/08/15 04:08:54;;;;;;;9.88;8.40;;;;;;;22.08;68.19;98873.61;1788807;80;20996;-46
2022/08/15 04:11:23;;;;;;;9.70;8.28;;;;;;;22.09;68.21;98867.48;1788758;80;21534;-46
2022/08/15 04:13:51;;;;;;;13.20;8.70;;;;;;;22.08;68.21;98866.70;1788975;80;21080;-47
2022/08/15 04:16:18;;;;;;;9.95;8.78;;;;;;;22.08;68.22;98870.84;1788671;80;21504;-47
2022/08/15 04:18:46;;;;;;;9.25;8.05;;;;;;;22.07;68.37;98876.84;1788509;80;21007;-47
2022/08/15 04:21:13;;;;;;;11.57;8.68;;;;;;;22.06;68.44;98874.69;1788235;80;21048;-47
2022/08/15 04:23:43;;;;;;;12.33;9.05;;;;;;;22.06;68.57;98874.69;1788516;80;21044;-47
2022/08/15 04:26:10;;;;;;;9.50;8.50;;;;;;;22.07;68.74;98875.45;1788570;80;21214;-47
2022/08/15 04:28:37;;;;;;;11.10;8.70;;;;;;;22.08;68.76;98871.45;1788465;80;21000;-47
2022/08/15 04:31:09;;;;;;;10.78;8.58;;;;;;;22.06;68.87;98874.69;1784267;80;20972;-47
2022/08/15 04:33:37;;;;;;;11.63;8.38;;;;;;;22.06;68.97;98878.05;1783253;80;21065;-47
2022/08/15 04:36:13;;;;;;;10.95;9.20;;;;;;;22.06;68.96;98877.45;1782935;80;21025;-46
2022/08/15 04:38:42;;;;;;;14.98;9.05;;;;;;;22.07;69.09;98880.98;1782893;80;21062;-47
2022/08/15 04:41:10;;;;;;;12.30;8.45;;;;;;;22.09;69.17;98882.05;1782654;80;21511;-47
2022/08/15 04:43:38;;;;;;;9.58;8.68;;;;;;;22.09;69.15;98877.14;1782707;80;20965;-47
2022/08/15 04:46:07;;;;;;;12.35;8.58;;;;;;;22.09;69.18;98877.92;1782447;80;21040;-47
2022/08/15 04:48:36;;;;;;;10.35;8.85;;;;;;;22.12;69.22;98884.55;1752203;80;21596;-47
2022/08/15 04:51:03;;;;;;;12.05;9.30;;;;;;;22.13;69.12;98882.53;1782524;80;23179;-47
2022/08/15 04:53:34;;;;;;;10.78;8.73;;;;;;;22.12;69.04;98871.34;1782598;80;20934;-46
2022/08/15 04:56:05;;;;;;;12.18;8.98;;;;;;;22.10;69.17;98867.04;1782705;80;20932;-47
2022/08/15 04:58:34;;;;;;;12.95;8.93;;;;;;;22.10;69.23;98875.33;1782922;80;21066;-47
2022/08/15 05:01:08;;;;;;;10.08;8.40;;;;;;;22.14;69.19;98875.19;1782505;80;22020;-47
2022/08/15 05:03:38;;;;;;;11.93;8.88;;;;;;;22.16;69.17;98874.75;1781186;80;21746;-47
2022/08/15 05:06:08;;;;;;;11.05;9.00;;;;;;;22.18;69.15;98877.20;1764726;80;21054;-47
2022/08/15 05:08:37;;;;;;;12.30;8.53;;;;;;;22.20;69.05;98869.86;1782790;80;21562;-47
2022/08/15 05:11:17;;;;;;;13.65;8.98;;;;;;;22.23;68.92;98866.19;1782312;80;20985;-47
2022/08/15 05:13:45;;;;;;;12.10;8.98;;;;;;;22.25;68.97;98861.00;1782174;80;21491;-47
2022/08/15 05:16:14;;;;;;;11.40;9.10;;;;;;;22.28;68.99;98858.72;1782434;80;21137;-47
2022/08/15 05:18:43;;;;;;;11.83;8.88;;;;;;;22.31;68.80;98861.37;1782506;80;20949;-47
2022/08/15 05:21:11;;;;;;;10.28;8.50;;;;;;;22.32;68.75;98862.88;1782592;80;21625;-47
2022/08/15 05:23:40;;;;;;;15.60;8.73;;;;;;;22.35;68.62;98862.61;1782549;80;20933;-46
2022/08/15 05:26:09;;;;;;;11.70;9.65;;;;;;;22.37;68.62;98852.64;1777970;80;21988;-46
2022/08/15 05:28:38;;;;;;;12.43;8.53;;;;;;;22.39;68.56;98854.95;1782848;80;21222;-47
2022/08/15 05:31:08;;;;;;;11.15;9.00;;;;;;;22.39;68.39;98854.34;1777582;80;20954;-47
2022/08/15 05:33:36;;;;;;;9.70;8.65;;;;;;;22.40;68.42;98856.50;1774285;80;21008;-47
2022/08/15 05:36:06;;;;;;;12.88;8.78;;;;;;;22.40;68.35;98855.13;1774104;80;21017;-47
2022/08/15 05:38:41;;;;;;;13.50;8.78;;;;;;;22.42;68.47;98855.42;1774298;80;21554;-46
2022/08/15 05:41:31;;;;;;;10.08;9.08;;;;;;;22.43;68.40;98859.13;1774383;80;21097;-47
2022/08/15 05:44:07;;;;;;;9.60;8.60;;;;;;;22.45;68.15;98854.54;1774134;80;20973;-46
2022/08/15 05:46:58;;;;;;;12.88;8.83;;;;;;;22.46;68.15;98854.07;1774200;80;20973;-47
2022/08/15 05:49:52;;;;;;;10.03;8.95;;;;;;;22.47;68.13;98857.00;1773915;80;21041;-47
2022/08/15 05:52:31;;;;;;;13.93;9.08;;;;;;;22.50;68.08;98858.10;1774192;80;21057;-47
2022/08/15 05:55:16;;;;;;;8.88;8.05;;;;;;;22.52;68.12;98855.03;1774054;80;21941;-47
2022/08/15 05:57:51;;;;;;;10.58;8.88;;;;;;;22.57;68.07;98850.14;1774042;80;21531;-47
2022/08/15 06:00:19;;;;;;;11.33;8.83;;;;;;;22.63;67.94;98847.73;1774121;80;20957;-47
2022/08/15 06:02:54;;;;;;;9.53;8.60;;;;;;;22.68;67.61;98856.81;1774106;80;20930;-47
2022/08/15 06:05:32;;;;;;;11.38;8.48;;;;;;;22.73;67.54;98849.95;1774231;80;21045;-47
2022/08/15 06:08:02;;;;;;;9.53;8.58;;;;;;;22.78;67.37;98845.98;1774249;80;22140;-47
2022/08/15 06:10:37;;;;;;;11.10;8.33;;;;;;;22.84;67.25;98845.56;1774478;80;21562;-46
2022/08/15 06:13:11;;;;;;;11.45;8.83;;;;;;;22.92;67.01;98842.67;1774053;80;21061;-47
2022/08/15 06:15:47;;;;;;;9.33;8.43;;;;;;;23.00;66.53;98843.14;1774482;80;21468;-47
2022/08/15 06:18:16;;;;;;;11.20;8.65;;;;;;;23.06;66.42;98853.00;1774103;80;21002;-47
2022/08/15 06:20:48;;;;;;;12.63;8.60;;;;;;;23.13;66.28;98847.20;1752398;80;21179;-47
2022/08/15 06:23:26;;;;;;;10.85;8.38;;;;;;;23.20;66.03;98840.75;1774104;80;21011;-47
2022/08/15 06:26:17;;;;;;;10.80;8.48;;;;;;;23.31;65.82;98844.47;1727944;80;20969;-47
2022/08/15 06:29:11;;;;;;;10.23;8.75;;;;;;;23.39;65.59;98840.17;1748616;80;21563;-47
2022/08/15 06:31:49;;;;;;;10.13;8.60;;;;;;;23.47;65.19;98831.78;1774037;80;21005;-47
2022/08/15 06:34:51;;;;;;;10.20;8.38;;;;;;;23.53;64.86;98827.16;1774081;80;21251;-46
2022/08/15 06:37:41;;;;;;;9.88;8.30;;;;;;;23.61;64.53;98826.27;1773404;80;20973;-47
2022/08/15 06:40:28;;;;;;;10.30;8.18;;;;;;;23.67;64.45;98836.24;1774138;80;20973;-47
2022/08/15 06:42:57;;;;;;;13.07;8.40;;;;;;;23.75;64.21;98847.80;1774010;80;21526;-47
2022/08/15 06:45:31;;;;;;;10.10;8.45;;;;;;;23.83;63.87;98855.33;1776538;80;21021;-47
2022/08/15 06:48:07;;;;;;;9.78;8.63;;;;;;;23.88;63.68;98854.55;1774307;80;21101;-47
2022/08/15 06:50:42;;;;;;;11.80;8.10;;;;;;;23.95;63.55;98850.87;1774110;80;20990;-47
2022/08/15 06:53:14;;;;;;;9.63;8.23;;;;;;;24.02;63.61;98858.86;1773946;80;20926;-47
2022/08/15 06:55:47;;;;;;;9.28;8.28;;;;;;;24.11;63.29;98866.39;1774245;80;21029;-47
2022/08/15 06:58:21;;;;;;;8.80;7.90;;;;;;;24.19;63.09;98882.90;1774651;80;21004;-47
2022/08/15 07:01:00;;;;;;;12.03;8.33;;;;;;;24.28;62.57;98875.19;1774160;80;21499;-47
2022/08/15 07:03:47;;;;;;;9.70;8.18;;;;;;;24.41;62.36;98876.55;1774472;80;21020;-46
2022/08/15 07:06:19;;;;;;;9.28;8.33;;;;;;;24.53;61.90;98868.69;1771120;80;21590;-47
2022/08/15 07:08:54;;;;;;;12.73;8.10;;;;;;;24.68;61.81;98866.03;1767499;80;21024;-47
2022/08/15 07:11:37;;;;;;;12.05;7.30;;;;;;;24.83;61.67;98864.75;1772683;80;21514;-47
2022/08/15 07:14:23;;;;;;;9.45;8.10;;;;;;;24.98;60.31;98857.33;1708761;80;21155;-47
2022/08/15 07:17:19;;;;;;;14.55;7.70;;;;;;;25.10;60.27;98850.79;1773706;80;21535;-47
2022/08/15 07:19:48;;;;;;;8.98;7.42;;;;;;;25.23;59.87;98855.48;1773611;80;20934;-47
2022/08/15 07:22:17;;;;;;;9.20;7.77;;;;;;;25.34;59.38;98868.23;1773666;80;21012;-47
2022/08/15 07:24:52;;;;;;;12.28;7.80;;;;;;;25.42;58.77;98869.41;1773989;80;21046;-47
2022/08/15 07:27:30;;;;;;;10.28;7.70;;;;;;;25.50;58.32;98865.67;1774119;80;21108;-47
2022/08/15 07:30:18;;;;;;;8.03;7.22;;;;;;;25.56;57.93;98869.99;1774161;80;20957;-46
2022/08/15 07:32:51;;;;;;;11.18;7.75;;;;;;;25.59;57.88;98871.81;1774177;80;21516;-47
2022/08/15 07:35:24;;;;;;;8.90;7.75;;;;;;;25.61;57.73;98883.23;1774377;80;20993;-47
2022/08/15 07:37:58;;;;;;;8.98;8.08;;;;;;;25.64;57.71;98880.87;1774166;80;21036;-47
2022/08/15 07:40:38;;;;;;;10.55;7.62;;;;;;;25.68;57.83;98878.69;1774398;80;21204;-47
2022/08/15 07:43:25;;;;;;;;;;;;;;;25.73;57.69;98873.87;1776713;80;20996;-47
2022/08/15 07:46:13;;;;;;;9.20;7.60;;;;;;;25.76;57.17;98869.52;1774410;80;20131;-47
2022/08/15 07:48:41;;;;;;;9.10;8.20;;;;;;;25.68;57.05;98861.41;1773904;80;21599;-47
2022/08/15 07:51:23;;;;;;;8.45;6.95;;;;;;;25.71;56.77;98871.56;1774173;80;27257;-47
2022/08/15 07:54:05;;;;;;;15.58;8.13;;;;;;;25.66;56.96;98890.26;1773082;80;21140;-47
2022/08/15 07:56:38;;;;;;;9.00;8.10;;;;;;;25.60;57.32;98892.79;1773639;80;21516;-47
2022/08/15 07:59:13;;;;;;;10.58;7.50;;;;;;;25.52;57.56;98881.99;1727017;80;22141;-47
2022/08/15 08:01:42;;;;;;;8.13;7.33;;;;;;;25.47;57.80;98888.19;1771084;80;21033;-47
2022/08/15 08:04:19;;;;;;;12.05;7.75;;;;;;;25.42;58.37;98888.06;1727948;80;21092;-47
2022/08/15 08:07:00;;;;;;;7.85;7.00;;;;;;;25.41;58.57;98876.84;1774149;80;21140;-46
2022/08/15 08:09:45;;;;;;;7.53;6.85;;;;;;;25.44;58.25;98868.33;1774322;80;21551;-47
2022/08/15 08:12:25;;;;;;;10.65;7.08;;;;;;;25.50;58.05;98869.22;1773926;80;20961;-47
2022/08/15 08:15:14;;;;;;;;;;;;;;;25.56;57.84;98869.99;1776682;80;21076;-47
2022/08/15 08:18:05;;;;;;;13.05;7.55;;;;;;;25.63;57.82;98866.84;1774107;80;20208;-47
2022/08/15 08:20:45;;;;;;;12.03;8.08;;;;;;;25.60;57.69;98862.25;1773961;80;23160;-47
2022/08/15 08:23:28;;;;;;;12.37;7.70;;;;;;;25.66;57.20;98874.25;1774255;80;21489;-47
2022/08/15 08:26:20;;;;;;;10.45;7.45;;;;;;;25.69;57.10;98870.52;1772892;80;21080;-47
2022/08/15 08:29:18;;;;;;;10.95;7.15;;;;;;;25.68;57.31;98878.08;1774265;80;20961;-47
2022/08/15 08:32:17;;;;;;;10.00;7.28;;;;;;;25.68;57.14;98874.53;1774019;80;21033;-47
2022/08/15 08:35:11;;;;;;;10.18;7.40;;;;;;;25.64;57.14;98874.71;1774237;80;21246;-47
2022/08/15 08:37:48;;;;;;;11.90;7.45;;;;;;;25.62;56.81;98887.52;1773451;80;21530;-47
2022/08/15 08:43:53;;;;;;;7.58;6.83;;;;;;;25.57;56.55;98880.61;1774365;80;20980;-47
2022/08/15 08:46:43;;;;;;;10.35;7.05;;;;;;;25.52;56.24;98881.99;1774540;80;21084;-47
2022/08/15 08:49:21;;;;;;;9.33;6.92;;;;;;;25.49;56.14;98893.28;1774105;80;21324;-47
2022/08/15 08:52:17;;;;;;;6.95;6.25;;;;;;;25.45;56.57;98880.97;1774051;80;21563;-47
2022/08/15 08:55:08;;;;;;;10.45;7.15;;;;;;;25.46;55.85;98873.42;1774244;80;21044;-47
2022/08/15 08:57:43;;;;;;;9.60;6.37;;;;;;;25.46;56.02;98864.45;1774236;80;21037;-47
2022/08/15 09:00:17;;;;;;;10.38;7.08;;;;;;;25.54;55.97;98866.27;1774265;80;21041;-47
2022/08/15 09:02:54;;;;;;;9.35;7.03;;;;;;;25.63;56.15;98855.74;1777237;80;21161;-47
2022/08/15 09:05:48;;;;;;;9.13;6.90;;;;;;;25.79;55.80;98855.33;1750150;80;20959;-47
2022/08/15 09:08:25;;;;;;;8.53;6.30;;;;;;;25.96;55.54;98840.52;1735117;82;20962;-48
2022/08/15 09:11:12;;;;;;;11.40;6.25;;;;;;;26.11;54.71;98852.27;1735363;82;21011;-47
2022/08/15 09:13:43;;;;;;;8.98;6.67;;;;;;;26.21;53.94;98850.35;1735189;82;21068;-47
2022/08/15 09:16:30;;;;;;;7.95;6.30;;;;;;;26.18;53.50;98842.95;1735183;82;21214;-47
2022/08/15 09:19:17;;;;;;;8.45;6.85;;;;;;;26.36;53.29;98853.91;1735170;82;21001;-47
2022/08/15 09:21:45;;;;;;;11.08;6.78;;;;;;;26.41;52.38;98853.09;1718828;81;20930;-47
2022/08/15 09:24:13;;;;;;;8.45;6.53;;;;;;;26.45;51.87;98857.22;1714622;82;20961;-47
2022/08/15 09:26:58;;;;;;;9.10;6.55;;;;;;;26.54;52.16;98854.95;1735240;82;21553;-47
2022/08/15 09:29:41;;;;;;;9.20;6.22;;;;;;;26.64;52.25;98848.82;1735142;82;21145;-47
2022/08/15 09:32:31;;;;;;;7.10;6.05;;;;;;;26.81;51.52;98849.11;1735035;82;20965;-47
2022/08/15 09:35:12;;;;;;;9.70;6.72;;;;;;;27.03;50.93;98857.04;1734974;82;21079;-47
2022/08/15 09:38:07;;;;;;;10.45;6.37;;;;;;;27.28;50.59;98866.77;1735106;82;20974;-47
2022/08/15 09:40:52;;;;;;;9.05;6.35;;;;;;;27.51;50.00;98870.02;1734379;82;20978;-47
2022/08/15 09:43:42;;;;;;;8.88;6.40;;;;;;;27.66;48.90;98858.97;1734581;82;21080;-47
2022/08/15 09:46:49;;;;;;;11.90;6.25;;;;;;;27.79;48.32;98853.03;1735136;82;21567;-47
2022/08/15 09:50:05;;;;;;;14.03;6.45;;;;;;;27.88;48.15;98853.53;1735049;82;20965;-47
2022/08/15 09:52:55;;;;;;;9.03;6.10;;;;;;;27.93;46.93;98854.97;1735079;82;21057;-47
2022/08/15 09:55:46;;;;;;;7.03;5.87;;;;;;;27.95;46.85;98846.89;1717203;82;21101;-47
2022/08/15 09:58:21;;;;;;;10.20;6.08;;;;;;;27.99;46.73;98846.05;1734951;82;21226;-47
2022/08/15 10:01:15;;;;;;;16.15;6.65;;;;;;;27.91;46.62;98837.98;1735052;82;21571;-47
2022/08/15 10:03:53;;;;;;;8.23;6.25;;;;;;;28.10;46.55;98844.78;1735046;82;20938;-47
2022/08/15 10:06:30;;;;;;;13.03;6.33;;;;;;;28.19;46.56;98844.51;1735130;82;21481;-47
2022/08/15 10:09:08;;;;;;;8.50;6.30;;;;;;;28.23;46.37;98835.30;1734878;82;21077;-47
2022/08/15 10:11:50;;;;;;;9.63;5.83;;;;;;;28.23;46.11;98843.66;1735085;82;21923;-47
2022/08/15 10:14:25;;;;;;;9.28;5.83;;;;;;;28.18;46.01;98836.00;1734988;82;21009;-47
2022/08/15 10:16:55;;;;;;;11.88;6.78;;;;;;;28.12;46.81;98826.84;1735109;82;21009;-47
2022/08/15 10:19:32;;;;;;;12.63;7.00;;;;;;;28.12;46.35;98826.84;1735166;82;21563;-47
2022/08/15 10:22:03;;;;;;;11.43;6.62;;;;;;;28.12;46.34;98833.19;1735230;82;21419;-48
2022/08/15 10:24:36;;;;;;;6.97;5.97;;;;;;;28.12;46.27;98833.80;1705144;82;21250;-47
2022/08/15 10:27:15;;;;;;;11.03;6.10;;;;;;;28.12;46.30;98831.79;1735248;82;20942;-47
2022/08/15 10:29:48;;;;;;;7.33;6.08;;;;;;;28.21;46.43;98825.28;1734766;82;21069;-48
2022/08/15 10:32:29;;;;;;;12.75;6.53;;;;;;;28.34;46.10;98813.11;1740750;82;21523;-48
2022/08/15 10:35:04;;;;;;;8.70;6.42;;;;;;;28.42;46.11;98812.16;1748951;82;21008;-48
2022/08/15 10:37:59;;;;;;;9.38;5.80;;;;;;;28.51;46.27;98808.45;1743995;81;21226;-48
2022/08/15 10:40:54;;;;;;;12.40;5.72;;;;;;;28.53;45.69;98807.31;1748930;82;21000;-47
2022/08/15 10:43:56;;;;;;;11.00;6.00;;;;;;;28.49;45.83;98810.33;1749048;82;21012;-47
2022/08/15 10:46:40;;;;;;;11.03;6.08;;;;;;;28.43;46.30;98803.94;1748954;81;21771;-47
2022/08/15 10:49:33;;;;;;;8.05;6.28;;;;;;;28.39;46.09;98797.05;1749093;82;21633;-47
2022/08/15 10:52:32;;;;;;;10.95;6.05;;;;;;;28.32;46.30;98801.70;1748777;82;23224;-47
2022/08/15 10:55:29;;;;;;;8.90;5.92;;;;;;;28.20;46.89;98807.02;1749247;82;21263;-47
2022/08/15 10:58:05;;;;;;;10.88;6.03;;;;;;;28.06;47.56;98808.01;1722762;82;21219;-47
2022/08/15 11:00:57;;;;;;;11.55;6.05;;;;;;;27.99;48.13;98816.79;1747352;82;20977;-48
2022/08/15 11:03:52;;;;;;;7.03;5.75;;;;;;;27.93;47.92;98806.20;1749244;82;21535;-47
2022/08/15 11:06:21;;;;;;;10.48;6.03;;;;;;;27.82;48.39;98804.72;1749207;82;21142;-47
2022/08/15 11:08:53;;;;;;;10.75;6.53;;;;;;;27.67;48.55;98805.42;1749090;82;20930;-47
2022/08/15 11:11:23;;;;;;;9.38;6.28;;;;;;;27.54;48.08;98803.63;1749474;82;21008;-47
2022/08/15 11:13:59;;;;;;;13.85;6.42;;;;;;;27.41;48.25;98792.03;1749229;82;21001;-47
2022/08/15 11:16:35;;;;;;;12.07;6.15;;;;;;;27.30;48.70;98796.85;1749201;82;21538;-47
2022/08/15 11:19:22;;;;;;;10.00;5.92;;;;;;;27.19;49.36;98812.77;1743700;82;21739;-47
2022/08/15 11:21:54;;;;;;;7.85;6.30;;;;;;;27.08;49.44;98822.34;1725413;82;21514;-47
2022/08/15 11:24:31;;;;;;;7.47;6.37;;;;;;;26.96;50.09;98859.62;1748748;81;21476;-47
2022/08/15 11:27:19;;;;;;;15.32;6.08;;;;;;;26.88;50.55;98866.80;1744233;82;21016;-48
2022/08/15 11:29:48;;;;;;;8.05;6.12;;;;;;;26.80;51.26;98860.85;1734204;82;20997;-48
2022/08/15 11:32:32;;;;;;;11.88;6.22;;;;;;;26.72;51.52;98861.08;1749082;81;21101;-48
2022/08/15 11:35:24;;;;;;;9.45;6.35;;;;;;;26.70;51.98;98875.34;1748877;82;21098;-48
2022/08/15 11:37:53;;;;;;;9.78;6.25;;;;;;;26.67;52.24;98870.74;1748867;82;21000;-47
2022/08/15 11:40:28;;;;;;;14.90;6.73;;;;;;;26.64;52.65;98885.59;1714492;82;21041;-47
2022/08/15 11:42:55;;;;;;;13.15;6.87;;;;;;;26.62;52.69;98890.27;1748877;82;21248;-47
2022/08/15 11:45:26;;;;;;;10.85;6.30;;;;;;;26.60;52.78;98885.02;1748853;82;21228;-47
2022/08/15 11:47:55;;;;;;;12.23;6.58;;;;;;;26.58;52.99;98874.37;1748824;82;22123;-47
2022/08/15 11:50:36;;;;;;;8.48;5.92;;;;;;;26.56;52.91;98864.98;1749424;82;21045;-48
2022/08/15 11:53:06;;;;;;;8.83;6.08;;;;;;;26.53;52.92;98865.95;1749455;82;21005;-47
2022/08/15 11:55:39;;;;;;;10.35;6.17;;;;;;;26.51;53.15;98876.78;1749231;82;21073;-47
2022/08/15 11:58:19;;;;;;;8.55;6.10;;;;;;;26.48;52.92;98872.19;1749380;81;21148;-47
2022/08/15 12:00:50;;;;;;;12.23;6.28;;;;;;;26.44;53.19;98873.74;1749171;82;21005;-47
2022/08/15 12:03:32;;;;;;;9.13;6.15;;;;;;;26.38;53.46;98861.13;1749349;82;20996;-47
2022/08/15 12:06:21;;;;;;;8.85;6.42;;;;;;;26.35;53.91;98851.61;1749208;82;21778;-47
2022/08/15 12:08:48;;;;;;;9.50;6.33;;;;;;;26.29;54.96;98848.72;1749284;82;20986;-47
2022/08/15 12:11:19;;;;;;;11.38;6.75;;;;;;;26.22;55.25;98849.11;1749037;82;21249;-47
2022/08/15 12:14:04;;;;;;;8.00;6.22;;;;;;;26.17;55.25;98846.97;1721878;82;20921;-47
2022/08/15 12:16:42;;;;;;;8.50;5.97;;;;;;;26.11;55.57;98850.26;1749011;82;21051;-47